sensor_id;sensor_type;location;lat;lon;timestamp;pressure;altitude;pressure_sealevel;temperature;humidity
68141;BME280;54941;52.220;104.306;2023-05-24T00:01:45;94944.84;;;11.83;49.43
68141;BME280;54941;52.220;104.306;2023-05-24T00:04:12;94935.19;;;11.82;49.74
68141;BME280;54941;52.220;104.306;2023-05-24T00:06:38;94937.69;;;12.02;49.52
68141;BME280;54941;52.220;104.306;2023-05-24T00:09:04;94932.41;;;12.87;47.36
68141;BME280;54941;52.220;104.306;2023-05-24T00:11:32;94915.88;;;14.68;43.30
68141;BME280;54941;52.220;104.306;2023-05-24T00:13:59;94900.94;;;16.32;39.43
68141;BME280;54941;52.220;104.306;2023-05-24T00:16:25;94898.59;;;15.73;40.28
68141;BME280;54941;52.220;104.306;2023-05-24T00:18:52;94902.19;;;16.14;40.17
68141;BME280;54941;52.220;104.306;2023-05-24T00:21:18;94905.63;;;16.28;39.52
68141;BME280;54941;52.220;104.306;2023-05-24T00:23:44;94902.47;;;16.49;38.74
68141;BME280;54941;52.220;104.306;2023-05-24T00:26:10;94896.53;;;17.09;37.10
68141;BME280;54941;52.220;104.306;2023-05-24T00:28:38;94899.97;;;16.85;38.26
68141;BME280;54941;52.220;104.306;2023-05-24T00:31:05;94903.44;;;17.24;36.54
68141;BME280;54941;52.220;104.306;2023-05-24T00:33:31;94897.22;;;16.34;37.55
68141;BME280;54941;52.220;104.306;2023-05-24T00:35:57;94895.31;;;16.49;36.33
68141;BME280;54941;52.220;104.306;2023-05-24T00:38:24;94902.03;;;16.55;36.99
68141;BME280;54941;52.220;104.306;2023-05-24T00:40:51;94908.06;;;15.92;37.83
68141;BME280;54941;52.220;104.306;2023-05-24T00:43:18;94899.88;;;15.95;37.29
68141;BME280;54941;52.220;104.306;2023-05-24T00:45:46;94905.47;;;16.44;36.45
68141;BME280;54941;52.220;104.306;2023-05-24T00:48:13;94903.25;;;16.76;35.63
68141;BME280;54941;52.220;104.306;2023-05-24T00:50:39;94896.72;;;17.31;34.58
68141;BME280;54941;52.220;104.306;2023-05-24T00:53:07;94903.38;;;15.95;36.94
68141;BME280;54941;52.220;104.306;2023-05-24T00:55:34;94901.63;;;16.48;35.77
68141;BME280;54941;52.220;104.306;2023-05-24T00:58:01;94899.31;;;16.69;34.78
68141;BME280;54941;52.220;104.306;2023-05-24T01:00:28;94903.56;;;17.10;34.41
68141;BME280;54941;52.220;104.306;2023-05-24T01:02:57;94891.06;;;17.85;32.60
68141;BME280;54941;52.220;104.306;2023-05-24T01:05:23;94905.00;;;16.38;34.98
68141;BME280;54941;52.220;104.306;2023-05-24T01:07:55;94898.44;;;16.16;35.52
68141;BME280;54941;52.220;104.306;2023-05-24T01:10:30;94903.22;;;15.84;35.91
68141;BME280;54941;52.220;104.306;2023-05-24T01:13:03;94904.78;;;16.41;34.85
68141;BME280;54941;52.220;104.306;2023-05-24T01:15:38;94904.03;;;16.91;33.13
68141;BME280;54941;52.220;104.306;2023-05-24T01:18:23;94901.19;;;16.54;34.29
68141;BME280;54941;52.220;104.306;2023-05-24T01:20:53;94904.56;;;16.71;33.83
68141;BME280;54941;52.220;104.306;2023-05-24T01:23:32;94909.06;;;16.03;35.04
68141;BME280;54941;52.220;104.306;2023-05-24T01:26:26;94887.31;;;18.47;31.11
68141;BME280;54941;52.220;104.306;2023-05-24T01:28:59;94890.78;;;18.36;30.70
68141;BME280;54941;52.220;104.306;2023-05-24T01:31:27;94904.50;;;16.58;33.27
68141;BME280;54941;52.220;104.306;2023-05-24T01:33:53;94894.38;;;16.63;33.24
68141;BME280;54941;52.220;104.306;2023-05-24T01:36:20;94885.59;;;16.36;33.32
68141;BME280;54941;52.220;104.306;2023-05-24T01:38:47;94885.38;;;16.26;33.32
68141;BME280;54941;52.220;104.306;2023-05-24T01:41:25;94886.63;;;16.20;33.28
68141;BME280;54941;52.220;104.306;2023-05-24T01:43:55;94883.91;;;16.08;33.55
68141;BME280;54941;52.220;104.306;2023-05-24T01:46:34;94882.88;;;16.10;33.74
68141;BME280;54941;52.220;104.306;2023-05-24T01:49:09;94888.50;;;16.58;33.17
68141;BME280;54941;52.220;104.306;2023-05-24T01:51:41;94876.41;;;16.27;33.16
68141;BME280;54941;52.220;104.306;2023-05-24T01:54:10;94876.28;;;16.68;32.69
68141;BME280;54941;52.220;104.306;2023-05-24T01:56:38;94872.56;;;16.71;32.31
68141;BME280;54941;52.220;104.306;2023-05-24T01:59:05;94879.91;;;16.92;31.96
68141;BME280;54941;52.220;104.306;2023-05-24T02:01:33;94876.28;;;16.81;31.21
68141;BME280;54941;52.220;104.306;2023-05-24T02:04:00;94882.41;;;16.43;32.15
68141;BME280;54941;52.220;104.306;2023-05-24T02:06:27;94874.56;;;16.67;31.15
68141;BME280;54941;52.220;104.306;2023-05-24T02:08:53;94879.44;;;15.68;33.02
68141;BME280;54941;52.220;104.306;2023-05-24T02:11:20;94883.78;;;15.96;33.07
68141;BME280;54941;52.220;104.306;2023-05-24T02:13:46;94879.63;;;15.92;33.01
68141;BME280;54941;52.220;104.306;2023-05-24T02:16:13;94864.28;;;16.48;32.35
68141;BME280;54941;52.220;104.306;2023-05-24T02:18:41;94869.09;;;16.56;31.96
68141;BME280;54941;52.220;104.306;2023-05-24T02:21:07;94870.72;;;16.71;32.38
68141;BME280;54941;52.220;104.306;2023-05-24T02:23:33;94862.50;;;17.00;31.43
68141;BME280;54941;52.220;104.306;2023-05-24T02:25:59;94869.44;;;16.89;31.28
68141;BME280;54941;52.220;104.306;2023-05-24T02:28:26;94872.81;;;16.41;32.70
68141;BME280;54941;52.220;104.306;2023-05-24T02:30:52;94860.47;;;16.00;33.35
68141;BME280;54941;52.220;104.306;2023-05-24T02:33:18;94871.69;;;16.18;33.32
68141;BME280;54941;52.220;104.306;2023-05-24T02:35:46;94871.50;;;16.21;33.10
68141;BME280;54941;52.220;104.306;2023-05-24T02:38:12;94867.09;;;16.98;31.86
68141;BME280;54941;52.220;104.306;2023-05-24T02:40:38;94868.44;;;16.52;32.24
68141;BME280;54941;52.220;104.306;2023-05-24T02:43:05;94859.53;;;16.91;31.54
68141;BME280;54941;52.220;104.306;2023-05-24T02:45:31;94866.44;;;16.56;32.38
68141;BME280;54941;52.220;104.306;2023-05-24T02:47:58;94864.69;;;16.29;33.05
68141;BME280;54941;52.220;104.306;2023-05-24T02:50:24;94862.63;;;16.85;32.56
68141;BME280;54941;52.220;104.306;2023-05-24T02:52:52;94859.78;;;17.38;31.45
68141;BME280;54941;52.220;104.306;2023-05-24T02:55:18;94853.84;;;17.45;31.31
68141;BME280;54941;52.220;104.306;2023-05-24T02:57:44;94858.88;;;16.75;32.45
68141;BME280;54941;52.220;104.306;2023-05-24T03:00:12;94863.56;;;16.07;33.45
68141;BME280;54941;52.220;104.306;2023-05-24T03:02:38;94870.59;;;15.68;33.93
68141;BME280;54941;52.220;104.306;2023-05-24T03:05:05;94874.88;;;15.56;34.18
68141;BME280;54941;52.220;104.306;2023-05-24T03:07:32;94874.03;;;15.83;33.90
68141;BME280;54941;52.220;104.306;2023-05-24T03:10:00;94879.91;;;15.75;33.47
68141;BME280;54941;52.220;104.306;2023-05-24T03:12:29;94884.09;;;14.95;35.08
68141;BME280;54941;52.220;104.306;2023-05-24T03:14:55;94881.56;;;15.35;34.40
68141;BME280;54941;52.220;104.306;2023-05-24T03:17:22;94881.34;;;15.66;34.19
68141;BME280;54941;52.220;104.306;2023-05-24T03:19:48;94892.59;;;15.43;34.54
68141;BME280;54941;52.220;104.306;2023-05-24T03:22:14;94890.81;;;15.15;34.77
68141;BME280;54941;52.220;104.306;2023-05-24T03:24:41;94883.72;;;15.57;34.66
68141;BME280;54941;52.220;104.306;2023-05-24T03:27:08;94884.97;;;15.65;34.04
68141;BME280;54941;52.220;104.306;2023-05-24T03:29:35;94885.44;;;15.85;34.27
68141;BME280;54941;52.220;104.306;2023-05-24T03:32:01;94880.81;;;15.33;35.35
68141;BME280;54941;52.220;104.306;2023-05-24T03:34:29;94876.19;;;15.22;35.40
68141;BME280;54941;52.220;104.306;2023-05-24T03:36:56;94871.81;;;15.77;34.80
68141;BME280;54941;52.220;104.306;2023-05-24T03:39:22;94873.78;;;15.73;35.17
68141;BME280;54941;52.220;104.306;2023-05-24T03:41:48;94876.31;;;15.47;35.37
68141;BME280;54941;52.220;104.306;2023-05-24T03:44:16;94870.72;;;15.52;35.40
68141;BME280;54941;52.220;104.306;2023-05-24T03:46:42;94867.47;;;16.28;33.76
68141;BME280;54941;52.220;104.306;2023-05-24T03:49:09;94864.38;;;16.34;32.82
68141;BME280;54941;52.220;104.306;2023-05-24T03:51:35;94867.84;;;16.74;32.98
68141;BME280;54941;52.220;104.306;2023-05-24T03:54:01;94864.72;;;17.18;31.72
68141;BME280;54941;52.220;104.306;2023-05-24T03:56:28;94847.66;;;17.08;30.91
68141;BME280;54941;52.220;104.306;2023-05-24T03:58:54;94855.00;;;16.54;32.24
68141;BME280;54941;52.220;104.306;2023-05-24T04:01:22;94857.91;;;16.76;32.04
68141;BME280;54941;52.220;104.306;2023-05-24T04:03:48;94849.88;;;16.51;32.52
68141;BME280;54941;52.220;104.306;2023-05-24T04:06:14;94843.44;;;16.80;32.22
68141;BME280;54941;52.220;104.306;2023-05-24T04:08:41;94839.97;;;17.16;31.18
68141;BME280;54941;52.220;104.306;2023-05-24T04:11:07;94835.50;;;16.41;32.84
68141;BME280;54941;52.220;104.306;2023-05-24T04:13:33;94836.03;;;16.97;31.91
68141;BME280;54941;52.220;104.306;2023-05-24T04:16:00;94835.38;;;16.29;32.96
68141;BME280;54941;52.220;104.306;2023-05-24T04:18:28;94842.00;;;15.97;33.19
68141;BME280;54941;52.220;104.306;2023-05-24T04:20:54;94834.97;;;16.36;32.90
68141;BME280;54941;52.220;104.306;2023-05-24T04:23:22;94830.38;;;16.88;32.67
68141;BME280;54941;52.220;104.306;2023-05-24T04:25:48;94833.03;;;17.01;31.13
68141;BME280;54941;52.220;104.306;2023-05-24T04:28:15;94818.53;;;17.05;31.71
68141;BME280;54941;52.220;104.306;2023-05-24T04:30:41;94814.84;;;17.19;31.73
68141;BME280;54941;52.220;104.306;2023-05-24T04:33:07;94807.19;;;17.99;30.88
68141;BME280;54941;52.220;104.306;2023-05-24T04:35:35;94801.28;;;18.98;28.90
68141;BME280;54941;52.220;104.306;2023-05-24T04:38:02;94801.28;;;18.06;30.84
68141;BME280;54941;52.220;104.306;2023-05-24T04:40:28;94808.41;;;18.63;30.21
68141;BME280;54941;52.220;104.306;2023-05-24T04:42:54;94811.03;;;18.19;30.55
68141;BME280;54941;52.220;104.306;2023-05-24T04:45:21;94802.88;;;19.34;28.93
68141;BME280;54941;52.220;104.306;2023-05-24T04:47:47;94812.78;;;19.54;29.24
68141;BME280;54941;52.220;104.306;2023-05-24T04:50:13;94827.72;;;18.91;30.12
68141;BME280;54941;52.220;104.306;2023-05-24T04:52:41;94827.97;;;18.77;29.90
68141;BME280;54941;52.220;104.306;2023-05-24T04:55:08;94830.13;;;18.72;29.79
68141;BME280;54941;52.220;104.306;2023-05-24T04:57:35;94828.44;;;17.16;31.42
68141;BME280;54941;52.220;104.306;2023-05-24T05:00:01;94826.28;;;17.82;31.84
68141;BME280;54941;52.220;104.306;2023-05-24T05:02:32;94838.03;;;17.55;31.69
68141;BME280;54941;52.220;104.306;2023-05-24T05:04:59;94837.72;;;18.07;31.04
68141;BME280;54941;52.220;104.306;2023-05-24T05:07:25;94843.66;;;18.46;30.46
68141;BME280;54941;52.220;104.306;2023-05-24T05:09:53;94835.97;;;19.55;28.94
68141;BME280;54941;52.220;104.306;2023-05-24T05:12:19;94844.09;;;18.75;29.60
68141;BME280;54941;52.220;104.306;2023-05-24T05:14:46;94855.59;;;17.83;31.77
68141;BME280;54941;52.220;104.306;2023-05-24T05:17:12;94871.50;;;17.85;31.35
68141;BME280;54941;52.220;104.306;2023-05-24T05:19:38;94875.75;;;17.50;32.36
68141;BME280;54941;52.220;104.306;2023-05-24T05:22:04;94891.34;;;16.42;34.55
68141;BME280;54941;52.220;104.306;2023-05-24T05:24:31;94911.38;;;16.22;35.67
68141;BME280;54941;52.220;104.306;2023-05-24T05:26:58;95001.31;;;14.16;43.11
68141;BME280;54941;52.220;104.306;2023-05-24T05:29:25;95017.94;;;12.03;49.43
68141;BME280;54941;52.220;104.306;2023-05-24T05:31:51;95076.94;;;10.90;53.19
68141;BME280;54941;52.220;104.306;2023-05-24T05:34:17;95119.41;;;9.53;58.53
68141;BME280;54941;52.220;104.306;2023-05-24T05:36:46;95134.41;;;9.27;61.55
68141;BME280;54941;52.220;104.306;2023-05-24T05:39:12;95129.69;;;8.36;65.12
68141;BME280;54941;52.220;104.306;2023-05-24T05:41:39;95176.25;;;7.76;66.57
68141;BME280;54941;52.220;104.306;2023-05-24T05:44:07;95184.91;;;8.08;66.24
68141;BME280;54941;52.220;104.306;2023-05-24T05:46:33;95210.22;;;7.82;66.60
68141;BME280;54941;52.220;104.306;2023-05-24T05:48:59;95218.97;;;7.83;67.19
68141;BME280;54941;52.220;104.306;2023-05-24T05:51:25;95229.22;;;6.97;70.61
68141;BME280;54941;52.220;104.306;2023-05-24T05:53:52;95239.16;;;6.86;70.17
68141;BME280;54941;52.220;104.306;2023-05-24T05:56:18;95236.78;;;7.10;71.50
68141;BME280;54941;52.220;104.306;2023-05-24T05:58:44;95241.41;;;7.00;71.59
68141;BME280;54941;52.220;104.306;2023-05-24T06:01:12;95228.47;;;6.92;72.78
68141;BME280;54941;52.220;104.306;2023-05-24T06:03:39;95249.06;;;6.75;73.29
68141;BME280;54941;52.220;104.306;2023-05-24T06:06:05;95253.94;;;6.89;72.88
68141;BME280;54941;52.220;104.306;2023-05-24T06:08:32;95265.50;;;7.16;72.77
68141;BME280;54941;52.220;104.306;2023-05-24T06:10:58;95270.75;;;7.16;71.89
68141;BME280;54941;52.220;104.306;2023-05-24T06:13:24;95291.63;;;7.22;71.75
68141;BME280;54941;52.220;104.306;2023-05-24T06:15:51;95301.59;;;7.09;71.96
68141;BME280;54941;52.220;104.306;2023-05-24T06:18:18;95291.25;;;7.01;70.32
68141;BME280;54941;52.220;104.306;2023-05-24T06:20:45;95299.00;;;7.08;68.53
68141;BME280;54941;52.220;104.306;2023-05-24T06:23:11;95310.25;;;7.13;68.79
68141;BME280;54941;52.220;104.306;2023-05-24T06:25:37;95318.44;;;7.00;67.73
68141;BME280;54941;52.220;104.306;2023-05-24T06:28:04;95319.16;;;7.06;68.01
68141;BME280;54941;52.220;104.306;2023-05-24T06:30:30;95330.13;;;7.23;66.52
68141;BME280;54941;52.220;104.306;2023-05-24T06:32:56;95329.19;;;7.25;65.36
68141;BME280;54941;52.220;104.306;2023-05-24T06:35:24;95318.59;;;7.28;63.61
68141;BME280;54941;52.220;104.306;2023-05-24T06:37:51;95332.44;;;7.35;62.76
68141;BME280;54941;52.220;104.306;2023-05-24T06:40:17;95326.22;;;7.72;61.85
68141;BME280;54941;52.220;104.306;2023-05-24T06:42:43;95334.53;;;7.22;61.99
68141;BME280;54941;52.220;104.306;2023-05-24T06:45:10;95328.84;;;7.03;63.05
68141;BME280;54941;52.220;104.306;2023-05-24T06:47:37;95332.06;;;7.49;62.36
68141;BME280;54941;52.220;104.306;2023-05-24T06:50:04;95319.47;;;7.61;61.79
68141;BME280;54941;52.220;104.306;2023-05-24T06:52:32;95312.13;;;8.05;61.58
68141;BME280;54941;52.220;104.306;2023-05-24T06:54:59;95327.28;;;7.96;60.38
68141;BME280;54941;52.220;104.306;2023-05-24T06:57:25;95344.50;;;8.07;60.19
68141;BME280;54941;52.220;104.306;2023-05-24T06:59:51;95352.13;;;8.16;60.96
68141;BME280;54941;52.220;104.306;2023-05-24T07:02:17;95353.19;;;8.09;60.75
68141;BME280;54941;52.220;104.306;2023-05-24T07:04:44;95358.78;;;8.30;60.49
68141;BME280;54941;52.220;104.306;2023-05-24T07:07:10;95376.78;;;8.14;60.01
68141;BME280;54941;52.220;104.306;2023-05-24T07:09:38;95375.59;;;7.93;61.70
68141;BME280;54941;52.220;104.306;2023-05-24T07:12:05;95391.91;;;8.06;62.03
68141;BME280;54941;52.220;104.306;2023-05-24T07:14:31;95392.19;;;7.95;62.35
68141;BME280;54941;52.220;104.306;2023-05-24T07:16:57;95408.59;;;7.71;64.17
68141;BME280;54941;52.220;104.306;2023-05-24T07:19:24;95401.13;;;7.55;64.68
68141;BME280;54941;52.220;104.306;2023-05-24T07:21:50;95405.53;;;7.55;66.14
68141;BME280;54941;52.220;104.306;2023-05-24T07:24:16;95409.53;;;7.34;67.78
68141;BME280;54941;52.220;104.306;2023-05-24T07:26:44;95430.13;;;7.15;69.72
68141;BME280;54941;52.220;104.306;2023-05-24T07:29:10;95418.00;;;7.10;69.46
68141;BME280;54941;52.220;104.306;2023-05-24T07:31:37;95411.53;;;7.24;69.05
68141;BME280;54941;52.220;104.306;2023-05-24T07:34:03;95423.63;;;7.31;68.07
68141;BME280;54941;52.220;104.306;2023-05-24T07:36:29;95420.34;;;7.57;66.76
68141;BME280;54941;52.220;104.306;2023-05-24T07:38:55;95437.00;;;7.21;66.93
68141;BME280;54941;52.220;104.306;2023-05-24T07:41:24;95442.75;;;6.99;68.65
68141;BME280;54941;52.220;104.306;2023-05-24T07:43:53;95452.41;;;7.36;67.93
68141;BME280;54941;52.220;104.306;2023-05-24T07:46:19;95458.94;;;7.20;68.84
68141;BME280;54941;52.220;104.306;2023-05-24T07:48:45;95459.28;;;7.40;69.29
68141;BME280;54941;52.220;104.306;2023-05-24T07:51:12;95455.28;;;7.25;69.92
68141;BME280;54941;52.220;104.306;2023-05-24T07:53:38;95460.44;;;7.28;70.23
68141;BME280;54941;52.220;104.306;2023-05-24T07:56:05;95458.16;;;7.15;69.92
68141;BME280;54941;52.220;104.306;2023-05-24T07:58:31;95455.22;;;6.90;70.60
68141;BME280;54941;52.220;104.306;2023-05-24T08:00:59;95462.56;;;7.13;70.93
68141;BME280;54941;52.220;104.306;2023-05-24T08:03:26;95473.88;;;7.18;70.23
68141;BME280;54941;52.220;104.306;2023-05-24T08:05:52;95464.84;;;7.29;70.66
68141;BME280;54941;52.220;104.306;2023-05-24T08:08:18;95464.78;;;7.31;69.28
68141;BME280;54941;52.220;104.306;2023-05-24T08:10:47;95455.31;;;7.24;70.04
68141;BME280;54941;52.220;104.306;2023-05-24T08:13:13;95465.66;;;7.31;69.34
68141;BME280;54941;52.220;104.306;2023-05-24T08:15:39;95457.03;;;7.25;69.59
68141;BME280;54941;52.220;104.306;2023-05-24T08:18:07;95442.09;;;7.27;67.75
68141;BME280;54941;52.220;104.306;2023-05-24T08:20:33;95463.16;;;7.25;69.90
68141;BME280;54941;52.220;104.306;2023-05-24T08:23:00;95471.41;;;7.10;69.93
68141;BME280;54941;52.220;104.306;2023-05-24T08:25:26;95473.78;;;7.21;68.92
68141;BME280;54941;52.220;104.306;2023-05-24T08:27:53;95482.31;;;7.29;66.78
68141;BME280;54941;52.220;104.306;2023-05-24T08:30:19;95478.59;;;7.39;68.66
68141;BME280;54941;52.220;104.306;2023-05-24T08:32:46;95486.09;;;7.56;66.84
68141;BME280;54941;52.220;104.306;2023-05-24T08:35:14;95490.53;;;7.54;66.28
68141;BME280;54941;52.220;104.306;2023-05-24T08:37:40;95486.34;;;7.81;66.56
68141;BME280;54941;52.220;104.306;2023-05-24T08:40:08;95495.19;;;8.12;65.56
68141;BME280;54941;52.220;104.306;2023-05-24T08:42:37;95496.94;;;8.13;64.74
68141;BME280;54941;52.220;104.306;2023-05-24T08:45:08;95492.06;;;8.31;64.19
68141;BME280;54941;52.220;104.306;2023-05-24T08:47:36;95485.59;;;8.44;63.43
68141;BME280;54941;52.220;104.306;2023-05-24T08:50:04;95488.53;;;8.64;62.10
68141;BME280;54941;52.220;104.306;2023-05-24T08:52:33;95489.50;;;8.91;61.07
68141;BME280;54941;52.220;104.306;2023-05-24T08:55:00;95492.91;;;8.65;61.86
68141;BME280;54941;52.220;104.306;2023-05-24T08:57:27;95503.19;;;8.74;63.03
68141;BME280;54941;52.220;104.306;2023-05-24T08:59:53;95495.75;;;8.89;62.47
68141;BME280;54941;52.220;104.306;2023-05-24T09:02:20;95495.22;;;8.45;62.06
68141;BME280;54941;52.220;104.306;2023-05-24T09:04:48;95498.75;;;8.11;62.30
68141;BME280;54941;52.220;104.306;2023-05-24T09:07:17;95497.59;;;8.54;62.98
68141;BME280;54941;52.220;104.306;2023-05-24T09:09:48;95505.84;;;8.42;62.26
68141;BME280;54941;52.220;104.306;2023-05-24T09:12:17;95510.25;;;8.72;60.90
68141;BME280;54941;52.220;104.306;2023-05-24T09:14:46;95511.38;;;8.30;62.53
68141;BME280;54941;52.220;104.306;2023-05-24T09:17:13;95506.63;;;8.11;61.86
68141;BME280;54941;52.220;104.306;2023-05-24T09:19:40;95496.69;;;7.87;62.30
68141;BME280;54941;52.220;104.306;2023-05-24T09:22:08;95502.53;;;7.27;62.20
68141;BME280;54941;52.220;104.306;2023-05-24T09:24:40;95507.44;;;7.42;62.12
68141;BME280;54941;52.220;104.306;2023-05-24T09:27:08;95513.03;;;7.27;62.43
68141;BME280;54941;52.220;104.306;2023-05-24T09:29:35;95516.53;;;7.27;63.22
68141;BME280;54941;52.220;104.306;2023-05-24T09:32:01;95529.25;;;7.46;63.75
68141;BME280;54941;52.220;104.306;2023-05-24T09:34:27;95521.47;;;8.14;63.05
68141;BME280;54941;52.220;104.306;2023-05-24T09:36:54;95509.94;;;7.84;60.97
68141;BME280;54941;52.220;104.306;2023-05-24T09:39:20;95520.16;;;7.96;61.30
68141;BME280;54941;52.220;104.306;2023-05-24T09:41:51;95519.09;;;8.03;60.83
68141;BME280;54941;52.220;104.306;2023-05-24T09:44:23;95518.31;;;8.34;59.41
68141;BME280;54941;52.220;104.306;2023-05-24T09:46:49;95520.28;;;8.60;59.14
68141;BME280;54941;52.220;104.306;2023-05-24T09:49:16;95520.75;;;8.74;58.38
68141;BME280;54941;52.220;104.306;2023-05-24T09:51:42;95514.44;;;8.80;58.20
68141;BME280;54941;52.220;104.306;2023-05-24T09:54:08;95517.81;;;8.85;57.36
68141;BME280;54941;52.220;104.306;2023-05-24T09:56:35;95514.22;;;8.87;55.79
68141;BME280;54941;52.220;104.306;2023-05-24T09:59:05;95503.28;;;8.71;54.70
68141;BME280;54941;52.220;104.306;2023-05-24T10:01:33;95507.91;;;8.29;57.60
68141;BME280;54941;52.220;104.306;2023-05-24T10:03:59;95512.16;;;8.98;55.10
68141;BME280;54941;52.220;104.306;2023-05-24T10:06:26;95519.56;;;8.53;52.74
68141;BME280;54941;52.220;104.306;2023-05-24T10:08:54;95516.81;;;8.89;53.50
68141;BME280;54941;52.220;104.306;2023-05-24T10:11:21;95511.06;;;9.05;54.13
68141;BME280;54941;52.220;104.306;2023-05-24T10:13:47;95526.88;;;8.08;54.42
68141;BME280;54941;52.220;104.306;2023-05-24T10:16:14;95517.31;;;8.39;53.56
68141;BME280;54941;52.220;104.306;2023-05-24T10:18:42;95506.34;;;8.55;55.70
68141;BME280;54941;52.220;104.306;2023-05-24T10:21:09;95513.34;;;8.57;54.65
68141;BME280;54941;52.220;104.306;2023-05-24T10:23:37;95518.13;;;9.05;53.51
68141;BME280;54941;52.220;104.306;2023-05-24T10:26:06;95516.69;;;8.62;52.90
68141;BME280;54941;52.220;104.306;2023-05-24T10:28:35;95512.91;;;8.40;53.16
68141;BME280;54941;52.220;104.306;2023-05-24T10:31:08;95513.19;;;8.62;53.14
68141;BME280;54941;52.220;104.306;2023-05-24T10:33:36;95522.34;;;8.80;54.06
68141;BME280;54941;52.220;104.306;2023-05-24T10:36:05;95517.31;;;9.03;52.49
68141;BME280;54941;52.220;104.306;2023-05-24T10:38:32;95516.84;;;8.56;51.70
68141;BME280;54941;52.220;104.306;2023-05-24T10:40:59;95508.09;;;8.56;53.20
68141;BME280;54941;52.220;104.306;2023-05-24T10:43:25;95502.28;;;8.09;54.20
68141;BME280;54941;52.220;104.306;2023-05-24T10:45:52;95493.59;;;8.41;53.96
68141;BME280;54941;52.220;104.306;2023-05-24T10:48:34;95498.16;;;8.33;53.24
68141;BME280;54941;52.220;104.306;2023-05-24T10:51:00;95507.94;;;8.28;53.75
68141;BME280;54941;52.220;104.306;2023-05-24T10:53:48;95507.88;;;8.63;54.23
68141;BME280;54941;52.220;104.306;2023-05-24T10:56:15;95513.97;;;8.65;53.28
68141;BME280;54941;52.220;104.306;2023-05-24T10:58:57;95524.13;;;8.12;53.38
68141;BME280;54941;52.220;104.306;2023-05-24T11:01:25;95520.91;;;8.01;54.36
68141;BME280;54941;52.220;104.306;2023-05-24T11:03:52;95516.69;;;7.94;54.57
68141;BME280;54941;52.220;104.306;2023-05-24T11:06:18;95519.50;;;7.86;54.41
68141;BME280;54941;52.220;104.306;2023-05-24T11:08:45;95526.00;;;8.07;54.93
68141;BME280;54941;52.220;104.306;2023-05-24T11:11:13;95520.66;;;8.12;55.46
68141;BME280;54941;52.220;104.306;2023-05-24T11:13:40;95515.47;;;8.07;54.90
68141;BME280;54941;52.220;104.306;2023-05-24T11:16:06;95524.50;;;7.97;55.11
68141;BME280;54941;52.220;104.306;2023-05-24T11:18:33;95522.25;;;7.82;54.79
68141;BME280;54941;52.220;104.306;2023-05-24T11:21:00;95521.91;;;7.60;56.73
68141;BME280;54941;52.220;104.306;2023-05-24T11:23:28;95512.09;;;7.68;55.95
68141;BME280;54941;52.220;104.306;2023-05-24T11:25:55;95509.06;;;7.83;55.43
68141;BME280;54941;52.220;104.306;2023-05-24T11:28:23;95512.78;;;7.75;55.50
68141;BME280;54941;52.220;104.306;2023-05-24T11:30:49;95509.03;;;7.85;56.54
68141;BME280;54941;52.220;104.306;2023-05-24T11:33:16;95509.34;;;7.73;56.32
68141;BME280;54941;52.220;104.306;2023-05-24T11:35:43;95531.97;;;7.80;56.20
68141;BME280;54941;52.220;104.306;2023-05-24T11:38:10;95540.97;;;7.70;56.31
68141;BME280;54941;52.220;104.306;2023-05-24T11:40:36;95542.91;;;7.61;56.89
68141;BME280;54941;52.220;104.306;2023-05-24T11:43:04;95544.25;;;7.79;56.09
68141;BME280;54941;52.220;104.306;2023-05-24T11:45:33;95541.66;;;7.78;56.53
68141;BME280;54941;52.220;104.306;2023-05-24T11:48:03;95542.59;;;7.74;55.59
68141;BME280;54941;52.220;104.306;2023-05-24T11:50:30;95552.22;;;7.75;55.99
68141;BME280;54941;52.220;104.306;2023-05-24T11:53:02;95545.41;;;7.68;56.35
68141;BME280;54941;52.220;104.306;2023-05-24T11:55:28;95544.19;;;7.44;57.34
68141;BME280;54941;52.220;104.306;2023-05-24T11:57:57;95559.06;;;7.45;57.73
68141;BME280;54941;52.220;104.306;2023-05-24T12:00:24;95549.47;;;7.44;58.34
68141;BME280;54941;52.220;104.306;2023-05-24T12:02:55;95536.06;;;7.54;58.10
68141;BME280;54941;52.220;104.306;2023-05-24T12:05:22;95546.72;;;7.48;58.31
68141;BME280;54941;52.220;104.306;2023-05-24T12:08:00;95544.25;;;7.42;57.81
68141;BME280;54941;52.220;104.306;2023-05-24T12:10:27;95549.25;;;7.51;58.00
68141;BME280;54941;52.220;104.306;2023-05-24T12:12:53;95550.53;;;7.35;58.83
68141;BME280;54941;52.220;104.306;2023-05-24T12:15:19;95552.25;;;7.36;59.51
68141;BME280;54941;52.220;104.306;2023-05-24T12:17:46;95555.09;;;7.25;60.00
68141;BME280;54941;52.220;104.306;2023-05-24T12:20:14;95560.53;;;7.16;60.03
68141;BME280;54941;52.220;104.306;2023-05-24T12:22:47;95566.88;;;7.08;60.54
68141;BME280;54941;52.220;104.306;2023-05-24T12:25:15;95566.88;;;7.08;60.97
68141;BME280;54941;52.220;104.306;2023-05-24T12:27:42;95567.97;;;6.97;62.12
68141;BME280;54941;52.220;104.306;2023-05-24T12:30:09;95569.59;;;7.03;61.81
68141;BME280;54941;52.220;104.306;2023-05-24T12:32:36;95574.94;;;6.98;61.91
68141;BME280;54941;52.220;104.306;2023-05-24T12:35:03;95569.50;;;7.08;61.72
68141;BME280;54941;52.220;104.306;2023-05-24T12:37:32;95577.31;;;7.11;62.45
68141;BME280;54941;52.220;104.306;2023-05-24T12:40:02;95583.63;;;7.02;62.03
68141;BME280;54941;52.220;104.306;2023-05-24T12:42:29;95585.84;;;6.79;63.73
68141;BME280;54941;52.220;104.306;2023-05-24T12:44:56;95591.84;;;6.85;62.59
68141;BME280;54941;52.220;104.306;2023-05-24T12:47:22;95588.16;;;6.95;62.11